createdAt,value
2023-05-19T00:04:21.992Z,58.00
2023-05-19T00:09:31.933Z,58.16
2023-05-19T00:14:40.886Z,58.27
2023-05-19T00:19:48.430Z,58.46
2023-05-19T00:24:55.881Z,58.67
2023-05-19T00:30:03.574Z,58.79
2023-05-19T00:35:12.958Z,59.02
2023-05-19T00:40:21.273Z,59.26
2023-05-19T00:45:29.521Z,59.41
2023-05-19T00:50:37.002Z,59.54
2023-05-19T00:55:44.607Z,59.67
2023-05-19T01:00:52.822Z,59.82
2023-05-19T01:06:05.535Z,60.02
2023-05-19T01:11:13.554Z,60.17
2023-05-19T01:16:30.962Z,60.35
2023-05-19T01:22:13.481Z,60.41
2023-05-19T01:27:28.125Z,60.46
2023-05-19T01:32:37.936Z,60.14
2023-05-19T01:37:47.176Z,60.78
2023-05-19T01:42:58.027Z,60.97
2023-05-19T01:48:10.623Z,61.14
2023-05-19T01:53:20.481Z,61.32
2023-05-19T01:58:40.433Z,61.48
2023-05-19T02:04:01.432Z,61.65
2023-05-19T02:09:14.233Z,61.75
2023-05-19T02:14:27.198Z,62.13
2023-05-19T02:19:41.486Z,63.40
2023-05-19T02:24:52.210Z,63.65
2023-05-19T02:30:00.228Z,63.56
2023-05-19T02:35:08.843Z,63.44
2023-05-19T02:40:17.196Z,63.28
2023-05-19T02:45:24.881Z,63.02
2023-05-19T02:50:32.850Z,62.84
2023-05-19T02:55:40.680Z,62.75
2023-05-19T03:00:48.427Z,61.69
2023-05-19T03:05:56.393Z,61.56
2023-05-19T03:11:04.260Z,61.62
2023-05-19T03:16:12.285Z,62.20
2023-05-19T03:21:20.552Z,62.85
2023-05-19T03:26:29.762Z,62.02
2023-05-19T03:31:37.956Z,61.96
2023-05-19T03:36:46.001Z,62.08
2023-05-19T03:41:56.936Z,62.17
2023-05-19T03:47:04.764Z,62.32
2023-05-19T03:52:37.206Z,62.35
2023-05-19T03:57:53.115Z,62.57
2023-05-19T04:03:01.303Z,62.74
2023-05-19T04:08:09.274Z,62.87
2023-05-19T04:13:16.994Z,63.03
2023-05-19T04:18:25.849Z,63.18
2023-05-19T04:23:34.753Z,63.31
2023-05-19T04:28:42.888Z,63.43
2023-05-19T04:33:50.710Z,63.53
2023-05-19T04:39:03.092Z,63.60
2023-05-19T04:44:11.547Z,63.63
2023-05-19T04:49:19.712Z,63.67
2023-05-19T04:54:27.694Z,63.72
2023-05-19T04:59:36.626Z,63.74
2023-05-19T05:04:47.189Z,63.78
2023-05-19T05:09:55.126Z,63.81
2023-05-19T05:15:04.042Z,63.85
2023-05-19T05:20:14.559Z,63.88
2023-05-19T05:25:25.115Z,63.90
2023-05-19T05:30:32.991Z,63.90
2023-05-19T05:35:40.664Z,63.93
2023-05-19T05:40:49.223Z,63.91
2023-05-19T05:45:57.530Z,63.87
2023-05-19T05:51:07.383Z,63.84
2023-05-19T05:56:17.238Z,63.85
2023-05-19T06:01:31.607Z,63.85
2023-05-19T06:06:40.264Z,63.92
2023-05-19T06:11:49.274Z,64.02
2023-05-19T06:16:57.466Z,64.17
2023-05-19T06:22:05.605Z,64.34
2023-05-19T06:27:14.392Z,64.42
2023-05-19T06:32:22.569Z,64.56
2023-05-19T06:37:30.397Z,64.78
2023-05-19T06:42:38.182Z,65.00
2023-05-19T06:47:55.165Z,65.09
2023-05-19T06:53:03.257Z,65.22
2023-05-19T06:58:10.912Z,65.30
2023-05-19T07:03:19.643Z,65.43
2023-05-19T07:08:28.254Z,65.44
2023-05-19T07:13:35.999Z,65.45
2023-05-19T07:18:44.643Z,65.49
2023-05-19T07:23:52.053Z,65.57
2023-05-19T07:29:00.248Z,65.63
2023-05-19T07:34:07.555Z,65.67
2023-05-19T07:39:15.234Z,65.76
2023-05-19T07:44:23.213Z,65.80
2023-05-19T07:49:31.292Z,65.88
2023-05-19T07:54:38.949Z,65.96
2023-05-19T07:59:46.505Z,66.03
2023-05-19T08:04:54.905Z,66.06
2023-05-19T08:10:02.679Z,66.00
2023-05-19T08:15:12.174Z,66.01
2023-05-19T08:20:19.812Z,66.05
2023-05-19T08:25:31.609Z,66.15
2023-05-19T08:30:39.774Z,66.17
2023-05-19T08:35:47.597Z,66.21
2023-05-19T08:40:55.512Z,66.28
2023-05-19T08:46:07.481Z,66.30
2023-05-19T08:51:16.579Z,66.25
2023-05-19T08:56:25.736Z,65.78
2023-05-19T09:01:34.126Z,66.08
2023-05-19T09:06:42.775Z,66.11
2023-05-19T09:11:51.808Z,66.12
2023-05-19T09:16:59.543Z,66.13
2023-05-19T09:22:07.343Z,66.24
2023-05-19T09:27:23.473Z,66.14
2023-05-19T09:32:32.118Z,66.01
2023-05-19T09:37:40.996Z,65.92
2023-05-19T09:42:49.569Z,65.81
2023-05-19T09:47:57.414Z,65.75
2023-05-19T09:53:05.906Z,65.74
2023-05-19T09:58:18.778Z,65.69
2023-05-19T10:03:27.332Z,65.57
2023-05-19T10:08:36.294Z,65.26
2023-05-19T10:13:44.976Z,64.93
2023-05-19T10:18:54.914Z,64.74
2023-05-19T10:24:02.844Z,64.39
2023-05-19T10:29:10.852Z,64.15
2023-05-19T10:34:51.337Z,64.05
2023-05-19T10:39:59.792Z,63.97
2023-05-19T10:45:15.565Z,63.72
2023-05-19T10:50:23.959Z,63.66
2023-05-19T10:55:52.541Z,63.47
2023-05-19T11:01:09.571Z,63.42
2023-05-19T11:06:30.161Z,63.42
2023-05-19T11:11:50.317Z,63.31
2023-05-19T11:17:01.221Z,63.23
2023-05-19T11:22:16.238Z,63.18
2023-05-19T11:27:26.934Z,63.18
2023-05-19T11:32:36.447Z,63.08
2023-05-19T11:37:44.683Z,63.06
2023-05-19T11:42:52.992Z,62.95
2023-05-19T11:48:02.995Z,62.90
2023-05-19T11:53:13.730Z,62.85
2023-05-19T11:58:27.646Z,62.85
2023-05-19T12:03:35.447Z,62.75
2023-05-19T12:08:43.327Z,62.57
2023-05-19T12:13:55.107Z,62.15
2023-05-19T12:19:02.787Z,62.00
2023-05-19T12:24:11.248Z,61.69
2023-05-19T12:29:18.895Z,61.33
2023-05-19T12:34:27.207Z,60.91
2023-05-19T12:39:35.310Z,60.42
2023-05-19T12:44:48.143Z,59.99
2023-05-19T12:50:05.124Z,59.77
2023-05-19T12:55:14.985Z,59.54
2023-05-19T13:00:26.123Z,59.32
2023-05-19T13:05:35.463Z,59.28
2023-05-19T13:10:44.533Z,59.14
2023-05-19T13:15:52.181Z,58.95
2023-05-19T13:21:00.384Z,58.92
2023-05-19T13:26:09.014Z,58.93
2023-05-19T13:31:16.739Z,59.01
2023-05-19T13:36:24.666Z,58.93
2023-05-19T13:41:32.973Z,58.79
2023-05-19T13:46:45.566Z,58.69
2023-05-19T13:52:02.071Z,58.69
2023-05-19T13:57:10.208Z,58.53
2023-05-19T14:02:18.558Z,58.27
2023-05-19T14:07:26.482Z,58.06
2023-05-19T14:12:45.104Z,57.93
2023-05-19T14:18:03.597Z,57.82
2023-05-19T14:23:12.814Z,57.78
2023-05-19T14:28:20.608Z,57.76
2023-05-19T14:33:32.730Z,57.92
2023-05-19T14:38:42.826Z,58.12
2023-05-19T14:43:50.756Z,58.33
2023-05-19T14:48:58.437Z,58.28
2023-05-19T14:54:06.602Z,58.15
2023-05-19T14:59:14.549Z,58.15
2023-05-19T15:04:22.165Z,57.93
2023-05-19T15:09:29.753Z,57.96
2023-05-19T15:14:37.459Z,57.98
2023-05-19T15:19:45.432Z,57.93
2023-05-19T15:24:53.320Z,57.96
2023-05-19T15:30:00.978Z,58.00
2023-05-19T15:35:10.253Z,57.92
2023-05-19T15:40:19.213Z,57.89
2023-05-19T15:45:27.653Z,57.92
2023-05-19T15:50:36.042Z,57.98
2023-05-19T15:55:44.030Z,58.01
2023-05-19T16:00:51.653Z,58.02
2023-05-19T16:05:59.622Z,58.05
2023-05-19T16:11:10.550Z,58.18
2023-05-19T16:16:18.229Z,58.23
2023-05-19T16:21:26.726Z,58.23
2023-05-19T16:26:34.908Z,58.24
2023-05-19T16:31:43.126Z,58.29
2023-05-19T16:36:50.869Z,58.33
2023-05-19T16:41:58.845Z,58.36
2023-05-19T16:47:06.941Z,58.42
2023-05-19T16:52:16.298Z,58.45
2023-05-19T16:57:24.227Z,58.46
2023-05-19T17:02:32.389Z,58.41
2023-05-19T17:07:40.640Z,58.34
2023-05-19T17:12:48.492Z,58.30
2023-05-19T17:17:56.086Z,58.31
2023-05-19T17:23:03.629Z,58.33
2023-05-19T17:28:11.206Z,58.40
2023-05-19T17:33:19.282Z,58.48
2023-05-19T17:38:26.956Z,58.56
2023-05-19T17:43:35.720Z,58.66
2023-05-19T17:48:43.738Z,58.76
2023-05-19T17:53:52.664Z,58.89
2023-05-19T17:59:03.701Z,59.03
2023-05-19T18:04:14.623Z,59.25
2023-05-19T18:09:29.143Z,59.52
2023-05-19T18:14:39.602Z,59.70
2023-05-19T18:19:47.217Z,59.89
2023-05-19T18:24:54.615Z,60.07
2023-05-19T18:30:02.418Z,60.24
2023-05-19T18:35:11.456Z,60.40
2023-05-19T18:40:19.300Z,60.48
2023-05-19T18:45:27.147Z,60.63
2023-05-19T18:50:35.036Z,60.73
2023-05-19T18:55:42.648Z,60.82
2023-05-19T19:00:51.093Z,60.90
2023-05-19T19:06:02.420Z,60.99
2023-05-19T19:11:11.742Z,61.08
2023-05-19T19:16:19.347Z,61.16
2023-05-19T19:21:26.749Z,61.21
2023-05-19T19:26:34.422Z,61.29
2023-05-19T19:31:41.963Z,61.35
2023-05-19T19:36:50.410Z,61.42
2023-05-19T19:41:57.981Z,61.48
2023-05-19T19:47:06.526Z,61.59
2023-05-19T19:52:14.223Z,61.68
2023-05-19T19:57:21.981Z,61.81
2023-05-19T20:02:29.668Z,61.91
2023-05-19T20:07:38.236Z,61.95
2023-05-19T20:12:48.313Z,61.99
2023-05-19T20:17:56.003Z,62.01
2023-05-19T20:23:03.553Z,62.04
2023-05-19T20:28:11.090Z,62.08
2023-05-19T20:33:18.592Z,62.11
2023-05-19T20:38:26.322Z,62.17
2023-05-19T20:43:34.141Z,62.19
2023-05-19T20:48:41.716Z,62.16
2023-05-19T20:53:49.388Z,62.14
2023-05-19T20:58:56.914Z,62.14
2023-05-19T21:04:08.268Z,62.14
2023-05-19T21:09:16.072Z,62.15
2023-05-19T21:14:23.970Z,62.14
2023-05-19T21:19:37.578Z,62.13
2023-05-19T21:24:44.933Z,62.06
2023-05-19T21:29:54.851Z,62.00
2023-05-19T21:35:02.750Z,61.89
2023-05-19T21:40:12.078Z,61.79
2023-05-19T21:45:19.829Z,61.65
2023-05-19T21:50:27.526Z,61.52
2023-05-19T21:55:36.364Z,61.43
2023-05-19T22:00:44.480Z,61.35
2023-05-19T22:05:54.236Z,61.28
2023-05-19T22:11:01.667Z,61.25
2023-05-19T22:16:09.761Z,61.20
2023-05-19T22:21:17.167Z,61.16
2023-05-19T22:26:24.828Z,61.15
2023-05-19T22:31:32.968Z,61.12
2023-05-19T22:36:41.667Z,61.10
2023-05-19T22:41:49.025Z,61.08
2023-05-19T22:46:56.664Z,61.03
2023-05-19T22:52:04.025Z,61.02
2023-05-19T22:57:12.374Z,60.99
2023-05-19T23:02:20.239Z,61.01
2023-05-19T23:07:27.964Z,61.01
2023-05-19T23:12:35.761Z,61.07
2023-05-19T23:17:43.246Z,61.08
2023-05-19T23:22:50.792Z,61.06
2023-05-19T23:27:58.151Z,61.03
2023-05-19T23:33:05.799Z,60.98
2023-05-19T23:38:13.903Z,60.94
2023-05-19T23:43:21.753Z,60.91
2023-05-19T23:48:29.718Z,60.91
2023-05-19T23:53:37.405Z,60.92
2023-05-19T23:58:45.238Z,60.94
